Time;durP1;ratioP1;P1;durP2;ratioP2;P2;SDS_P1;SDS_P2;PMS_P1;PMS_P2;Temp;Humidity;BMP_temperature;BMP_pressure;BME280_temperature;BME280_humidity;BME280_pressure;Samples;Min_cycle;Max_cycle;Signal;HPM_P1;HPM_P2
2023/05/21 00:02:17;;;;;;;10.97;4.90;;;16.70;99.90;;;;;;5067781;28;20241;-77
2023/05/21 00:04:44;;;;;;;5.07;4.30;;;16.60;99.90;;;;;;5086557;28;20182;-81
2023/05/21 00:07:11;;;;;;;9.73;4.27;;;16.50;99.90;;;;;;5090101;28;20594;-78
2023/05/21 00:09:38;;;;;;;6.70;4.63;;;16.50;99.90;;;;;;5083339;28;20179;-82
2023/05/21 00:12:08;;;;;;;8.67;4.53;;;16.50;99.90;;;;;;5085182;28;20812;-78
2023/05/21 00:14:35;;;;;;;9.93;4.87;;;16.40;99.90;;;;;;5071315;28;20235;-81
2023/05/21 00:17:02;;;;;;;8.10;4.67;;;16.40;99.90;;;;;;5066450;28;20189;-77
2023/05/21 00:19:28;;;;;;;8.10;4.47;;;16.40;99.90;;;;;;5065178;28;20194;-82
2023/05/21 00:21:56;;;;;;;9.30;4.50;;;16.40;99.90;;;;;;5079358;28;20189;-82
2023/05/21 00:24:23;;;;;;;7.73;4.50;;;16.40;99.90;;;;;;5061542;28;23595;-79
2023/05/21 00:26:50;;;;;;;6.77;4.77;;;16.40;99.90;;;;;;5079173;28;20201;-81
2023/05/21 00:29:18;;;;;;;7.93;5.40;;;16.40;99.90;;;;;;5079376;28;20305;-77
2023/05/21 00:31:44;;;;;;;7.87;4.30;;;16.40;99.90;;;;;;5061860;28;20213;-77
2023/05/21 00:34:13;;;;;;;11.47;4.90;;;16.40;99.90;;;;;;5066483;28;20174;-78
2023/05/21 00:36:39;;;;;;;6.50;4.50;;;16.40;99.90;;;;;;5100523;27;20540;-77
2023/05/21 00:39:06;;;;;;;6.63;4.47;;;16.30;99.90;;;;;;5081640;28;20186;-81
2023/05/21 00:41:34;;;;;;;9.07;4.60;;;16.30;99.90;;;;;;5115596;27;20192;-83
2023/05/21 00:44:02;;;;;;;9.43;5.20;;;16.20;99.90;;;;;;5113483;27;20182;-81
2023/05/21 00:46:28;;;;;;;7.17;4.93;;;16.20;99.90;;;;;;5061517;28;20192;-81
2023/05/21 00:48:56;;;;;;;8.17;5.53;;;16.20;99.90;;;;;;5092756;27;20178;-82
2023/05/21 00:51:24;;;;;;;9.47;5.60;;;16.20;99.90;;;;;;5066541;28;20224;-82
2023/05/21 00:53:53;;;;;;;8.67;4.70;;;16.20;99.90;;;;;;5081430;28;20202;-78
2023/05/21 00:56:22;;;;;;;8.17;5.57;;;16.20;99.90;;;;;;5089260;27;20183;-82
2023/05/21 00:58:50;;;;;;;9.60;5.20;;;16.10;99.90;;;;;;5095657;28;20220;-78
2023/05/21 01:01:18;;;;;;;10.57;5.60;;;16.10;99.90;;;;;;5084189;28;20178;-77
2023/05/21 01:03:47;;;;;;;8.13;5.13;;;16.10;99.90;;;;;;5084059;28;20221;-78
2023/05/21 01:06:14;;;;;;;7.63;4.80;;;16.10;99.90;;;;;;5077750;28;20181;-77
2023/05/21 01:08:41;;;;;;;10.17;4.97;;;16.10;99.90;;;;;;5083966;28;20178;-77
2023/05/21 01:11:10;;;;;;;12.43;5.33;;;15.90;99.90;;;;;;5093071;28;20173;-81
2023/05/21 01:13:40;;;;;;;7.67;5.00;;;15.80;99.90;;;;;;5065133;28;20213;-78
2023/05/21 01:16:10;;;;;;;7.90;4.97;;;15.70;99.90;;;;;;5060876;28;20190;-78
2023/05/21 01:18:37;;;;;;;9.53;5.30;;;15.70;99.90;;;;;;5104580;27;20532;-78
2023/05/21 01:21:06;;;;;;;8.50;4.60;;;15.70;99.90;;;;;;5059263;28;20206;-78
2023/05/21 01:23:33;;;;;;;7.93;5.03;;;15.70;99.90;;;;;;5080609;28;20603;-78
2023/05/21 01:26:00;;;;;;;12.73;4.97;;;15.70;99.90;;;;;;5074197;28;20198;-82
2023/05/21 01:28:28;;;;;;;7.10;4.93;;;15.80;99.90;;;;;;5063795;28;20182;-81
2023/05/21 01:30:59;;;;;;;11.83;5.40;;;15.70;99.90;;;;;;5086982;28;20296;-82
2023/05/21 01:33:37;;;;;;;8.40;5.03;;;15.70;99.90;;;;;;5077661;28;20777;-82
2023/05/21 01:36:17;;;;;;;8.03;5.20;;;15.70;99.90;;;;;;5074555;28;20199;-81
2023/05/21 01:39:11;;;;;;;10.33;5.50;;;15.80;99.90;;;;;;5055497;28;20220;-82
2023/05/21 01:41:43;;;;;;;7.93;4.97;;;15.80;99.90;;;;;;5057106;28;20334;-80
2023/05/21 01:44:10;;;;;;;7.30;4.93;;;15.70;99.90;;;;;;5071223;28;20193;-78
2023/05/21 01:46:38;;;;;;;8.90;4.73;;;15.80;99.90;;;;;;5093612;28;20234;-81
2023/05/21 01:49:06;;;;;;;11.13;5.40;;;15.80;99.90;;;;;;5092015;28;20186;-81
2023/05/21 01:51:34;;;;;;;9.63;5.40;;;15.80;99.90;;;;;;5071745;28;20225;-77
2023/05/21 01:54:01;;;;;;;10.20;5.10;;;15.80;99.90;;;;;;5085980;28;20395;-81
2023/05/21 01:56:27;;;;;;;7.17;5.33;;;15.80;99.90;;;;;;5074111;28;20177;-81
2023/05/21 01:58:57;;;;;;;11.47;5.60;;;15.90;99.90;;;;;;5062303;28;20419;-77
2023/05/21 02:01:23;;;;;;;10.07;5.67;;;16.00;99.90;;;;;;5066056;28;20170;-79
2023/05/21 02:03:49;;;;;;;7.73;5.27;;;16.10;99.90;;;;;;5059216;28;20193;-83
2023/05/21 02:06:16;;;;;;;7.53;5.27;;;16.10;99.90;;;;;;5062281;28;20228;-79
2023/05/21 02:08:44;;;;;;;8.83;5.57;;;16.20;99.90;;;;;;5076901;28;20190;-82
2023/05/21 02:11:11;;;;;;;12.43;6.27;;;16.20;99.90;;;;;;5071595;28;20289;-79
2023/05/21 02:13:41;;;;;;;10.43;5.77;;;16.20;99.90;;;;;;5072995;28;20567;-83
2023/05/21 02:16:13;;;;;;;10.17;6.30;;;16.30;99.90;;;;;;5100438;27;20674;-82
2023/05/21 02:18:43;;;;;;;11.53;6.07;;;16.30;99.90;;;;;;5073748;28;20193;-82
2023/05/21 02:21:11;;;;;;;11.07;6.30;;;16.30;99.90;;;;;;5060511;28;20179;-82
2023/05/21 02:23:37;;;;;;;11.30;6.13;;;16.30;99.90;;;;;;5064352;28;21185;-79
2023/05/21 02:26:04;;;;;;;6.33;5.17;;;16.30;99.90;;;;;;5081621;28;20189;-82
2023/05/21 02:28:31;;;;;;;8.27;5.37;;;16.40;99.90;;;;;;5074919;28;20197;-83
2023/05/21 02:30:57;;;;;;;8.33;5.83;;;16.30;99.90;;;;;;5074453;28;20243;-78
2023/05/21 02:33:24;;;;;;;9.33;5.50;;;16.30;99.90;;;;;;5073949;28;20255;-79
2023/05/21 02:35:51;;;;;;;15.17;6.43;;;16.30;99.90;;;;;;5059487;28;20727;-79
2023/05/21 02:38:18;;;;;;;8.83;6.47;;;16.30;99.90;;;;;;5054122;28;20204;-82
2023/05/21 02:40:49;;;;;;;7.83;5.90;;;16.40;99.90;;;;;;5071285;28;20281;-79
2023/05/21 02:43:16;;;;;;;9.27;6.10;;;16.40;99.90;;;;;;5058318;28;20269;-79
2023/05/21 02:45:43;;;;;;;10.80;6.17;;;16.40;99.90;;;;;;5069903;28;20597;-79
2023/05/21 02:48:10;;;;;;;8.23;5.57;;;16.30;99.90;;;;;;5057582;28;20190;-82
2023/05/21 02:50:36;;;;;;;9.80;5.90;;;16.30;99.90;;;;;;5079484;28;20220;-83
2023/05/21 02:53:03;;;;;;;7.37;5.90;;;16.20;99.90;;;;;;5060895;28;20202;-80
2023/05/21 02:55:29;;;;;;;10.03;6.13;;;16.10;99.90;;;;;;5057007;28;20397;-84
2023/05/21 02:57:55;;;;;;;8.30;5.50;;;16.10;99.90;;;;;;5077779;28;20546;-79
2023/05/21 03:00:21;;;;;;;9.17;6.13;;;16.00;99.90;;;;;;5087711;28;20182;-80
2023/05/21 03:02:48;;;;;;;9.30;5.73;;;16.00;99.90;;;;;;5062782;28;20254;-82
2023/05/21 03:05:14;;;;;;;6.57;5.67;;;16.00;99.90;;;;;;5066232;28;20194;-79
2023/05/21 03:07:41;;;;;;;8.60;6.37;;;16.00;99.90;;;;;;5075613;28;20194;-80
2023/05/21 03:10:07;;;;;;;8.80;5.80;;;15.90;99.90;;;;;;5083965;28;20194;-79
2023/05/21 03:12:34;;;;;;;10.63;5.70;;;15.80;99.90;;;;;;5057517;28;20583;-82
2023/05/21 03:15:00;;;;;;;10.00;6.10;;;15.80;99.90;;;;;;5076739;28;20237;-82
2023/05/21 03:17:26;;;;;;;8.17;5.70;;;15.70;99.90;;;;;;5058117;28;20178;-82
2023/05/21 03:19:53;;;;;;;8.40;5.67;;;15.80;99.90;;;;;;5072236;28;20268;-79
2023/05/21 03:22:20;;;;;;;9.30;5.77;;;15.80;99.90;;;;;;5074413;28;20690;-83
2023/05/21 03:24:47;;;;;;;7.23;5.80;;;15.90;99.90;;;;;;5060937;28;20519;-83
2023/05/21 03:27:13;;;;;;;9.30;6.07;;;15.90;99.90;;;;;;5057471;28;20666;-83
2023/05/21 03:29:39;;;;;;;8.53;6.10;;;16.00;99.90;;;;;;5056849;28;20195;-78
2023/05/21 03:32:06;;;;;;;8.70;5.63;;;16.00;99.90;;;;;;5060889;28;21744;-79
2023/05/21 03:34:33;;;;;;;8.20;5.83;;;16.00;99.90;;;;;;5080124;28;20182;-79
2023/05/21 03:36:59;;;;;;;12.37;6.57;;;16.00;99.90;;;;;;5081621;28;20784;-80
2023/05/21 03:39:26;;;;;;;9.17;6.10;;;16.00;99.90;;;;;;5077989;28;20210;-79
2023/05/21 03:41:52;;;;;;;12.47;6.33;;;16.00;99.90;;;;;;5056662;28;20186;-82
2023/05/21 03:44:19;;;;;;;11.57;5.97;;;15.90;99.90;;;;;;5073157;28;20281;-82
2023/05/21 03:46:45;;;;;;;7.83;5.60;;;15.90;99.90;;;;;;5105156;27;20194;-79
2023/05/21 03:49:13;;;;;;;10.63;6.00;;;15.90;99.90;;;;;;5104473;27;20390;-80
2023/05/21 03:51:39;;;;;;;9.90;5.30;;;16.00;99.90;;;;;;5056633;28;20281;-83
2023/05/21 03:54:05;;;;;;;7.87;5.13;;;16.00;99.90;;;;;;5058409;28;20182;-82
2023/05/21 03:56:32;;;;;;;9.77;6.27;;;16.10;99.90;;;;;;5060967;28;20174;-81
2023/05/21 03:58:58;;;;;;;9.27;5.70;;;16.20;99.90;;;;;;5061864;28;20178;-82
2023/05/21 04:01:27;;;;;;;8.83;5.83;;;16.20;99.90;;;;;;5061593;28;20234;-81
2023/05/21 04:03:53;;;;;;;8.93;5.60;;;16.30;99.90;;;;;;5064358;28;20198;-81
2023/05/21 04:06:20;;;;;;;9.70;5.60;;;16.30;99.90;;;;;;5079563;28;20186;-82
2023/05/21 04:08:46;;;;;;;7.27;5.80;;;16.40;99.90;;;;;;5097045;27;20277;-82
2023/05/21 04:11:13;;;;;;;9.37;5.77;;;16.40;99.90;;;;;;5063688;28;20209;-78
2023/05/21 04:13:39;;;;;;;7.40;5.90;;;16.50;99.90;;;;;;5079599;28;20210;-79
2023/05/21 04:16:08;;;;;;;9.13;5.87;;;16.60;99.90;;;;;;5075517;28;20178;-80
2023/05/21 04:18:34;;;;;;;9.60;6.37;;;16.60;99.90;;;;;;5062651;28;20718;-82
2023/05/21 04:21:01;;;;;;;12.70;6.47;;;16.70;99.90;;;;;;5090780;28;20200;-82
2023/05/21 04:23:27;;;;;;;9.97;6.47;;;16.70;99.90;;;;;;5061583;28;20247;-79
2023/05/21 04:25:54;;;;;;;12.93;6.20;;;16.80;99.90;;;;;;5062827;28;20552;-78
2023/05/21 04:28:22;;;;;;;8.17;5.70;;;16.80;99.90;;;;;;5062754;28;20190;-82
2023/05/21 04:30:49;;;;;;;12.40;6.20;;;16.90;99.90;;;;;;5079483;28;20190;-82
2023/05/21 04:33:16;;;;;;;10.57;6.47;;;16.90;99.90;;;;;;5060331;28;20201;-82
2023/05/21 04:35:46;;;;;;;12.03;5.80;;;17.00;99.90;;;;;;5057651;28;20662;-79
2023/05/21 04:38:12;;;;;;;8.87;5.90;;;17.00;99.90;;;;;;5090506;27;20182;-79
2023/05/21 04:40:39;;;;;;;10.13;6.27;;;17.10;99.90;;;;;;5054613;28;20258;-82
2023/05/21 04:43:06;;;;;;;15.10;5.67;;;17.20;99.90;;;;;;5071928;28;20201;-76
2023/05/21 04:45:33;;;;;;;8.17;5.60;;;17.20;99.90;;;;;;5061723;28;20587;-83
2023/05/21 04:47:59;;;;;;;10.40;5.93;;;17.30;99.90;;;;;;5078517;28;20187;-77
2023/05/21 04:50:25;;;;;;;8.77;5.20;;;17.30;99.90;;;;;;5080464;28;20295;-83
2023/05/21 04:52:53;;;;;;;7.30;5.30;;;17.30;99.90;;;;;;5072968;28;20293;-76
2023/05/21 04:55:20;;;;;;;10.67;6.10;;;17.40;99.90;;;;;;5103966;27;20174;-83
2023/05/21 04:57:46;;;;;;;9.57;6.27;;;17.40;99.90;;;;;;5089127;28;20884;-83
2023/05/21 05:00:13;;;;;;;8.50;5.40;;;17.40;99.90;;;;;;5094702;28;20185;-78
2023/05/21 05:02:39;;;;;;;7.33;5.87;;;17.40;99.90;;;;;;5076328;28;20178;-78
2023/05/21 05:05:06;;;;;;;8.30;5.70;;;17.40;99.90;;;;;;5062736;28;20190;-78
2023/05/21 05:07:32;;;;;;;10.07;6.00;;;17.40;99.90;;;;;;5061238;28;20273;-82
2023/05/21 05:09:59;;;;;;;8.20;5.60;;;17.40;99.90;;;;;;5088826;28;20276;-82
2023/05/21 05:12:25;;;;;;;12.70;5.33;;;17.40;99.90;;;;;;5060643;28;20739;-82
2023/05/21 05:14:52;;;;;;;8.57;5.77;;;17.40;99.90;;;;;;5073304;28;20265;-82
2023/05/21 05:17:18;;;;;;;6.80;5.60;;;17.40;99.90;;;;;;5075626;28;20998;-78
2023/05/21 05:19:45;;;;;;;9.17;5.53;;;17.50;99.90;;;;;;5075460;28;20186;-77
2023/05/21 05:22:11;;;;;;;10.87;5.77;;;17.70;99.90;;;;;;5061159;28;20190;-81
2023/05/21 05:24:38;;;;;;;11.87;5.63;;;17.70;99.90;;;;;;5056525;28;20225;-80
2023/05/21 05:27:04;;;;;;;8.73;5.33;;;17.80;99.90;;;;;;5056445;28;20214;-80
2023/05/21 05:29:30;;;;;;;8.47;5.17;;;17.80;99.90;;;;;;5055754;28;20274;-77
2023/05/21 05:31:57;;;;;;;8.27;5.53;;;17.80;99.90;;;;;;5071015;28;20212;-80
2023/05/21 05:34:23;;;;;;;12.50;6.00;;;17.90;99.90;;;;;;5105090;27;20185;-77
2023/05/21 05:36:49;;;;;;;18.90;6.00;;;18.00;99.90;;;;;;5055911;28;20749;-75
2023/05/21 05:39:16;;;;;;;11.17;5.53;;;18.00;99.90;;;;;;5058078;28;20192;-76
2023/05/21 05:41:42;;;;;;;7.73;4.50;;;18.00;99.90;;;;;;5056166;28;20239;-81
2023/05/21 05:44:08;;;;;;;7.97;4.93;;;18.10;99.90;;;;;;5058092;28;20255;-81
2023/05/21 05:46:35;;;;;;;9.47;5.03;;;18.10;99.90;;;;;;5071877;28;20664;-82
2023/05/21 05:49:01;;;;;;;11.63;5.17;;;18.20;99.90;;;;;;5056914;28;20200;-82
2023/05/21 05:51:28;;;;;;;9.37;5.27;;;18.30;99.90;;;;;;5057739;28;20194;-80
2023/05/21 05:53:55;;;;;;;8.13;5.30;;;18.40;99.90;;;;;;5090945;28;20206;-82
2023/05/21 05:56:21;;;;;;;12.87;5.13;;;18.50;99.90;;;;;;5074974;28;20585;-78
2023/05/21 05:58:48;;;;;;;9.47;4.97;;;18.60;99.90;;;;;;5058662;28;20178;-81
2023/05/21 06:01:15;;;;;;;12.60;5.27;;;18.60;99.90;;;;;;5076456;28;20219;-79
2023/05/21 06:03:41;;;;;;;7.67;5.13;;;18.70;99.90;;;;;;5075039;28;20335;-78
2023/05/21 06:06:07;;;;;;;8.60;4.93;;;18.80;99.90;;;;;;5060006;28;20281;-83
2023/05/21 06:08:33;;;;;;;10.23;5.30;;;18.80;99.90;;;;;;5075553;28;20191;-82
2023/05/21 06:11:00;;;;;;;10.97;5.50;;;18.90;99.90;;;;;;5089771;28;20190;-82
2023/05/21 06:13:27;;;;;;;10.97;5.60;;;19.00;99.90;;;;;;5056947;28;20234;-79
2023/05/21 06:15:53;;;;;;;10.13;5.20;;;19.10;99.90;;;;;;5057203;28;20183;-81
2023/05/21 06:18:20;;;;;;;8.03;5.30;;;19.10;99.90;;;;;;5056884;28;20186;-83
2023/05/21 06:20:47;;;;;;;6.90;4.97;;;19.10;99.90;;;;;;5070584;28;20186;-78
2023/05/21 06:23:13;;;;;;;9.80;5.47;;;19.10;99.90;;;;;;5059362;28;20210;-79
2023/05/21 06:25:40;;;;;;;11.33;5.57;;;19.20;99.90;;;;;;5094124;27;20186;-82
2023/05/21 06:28:06;;;;;;;9.43;5.60;;;19.30;99.90;;;;;;5076978;28;20276;-78
2023/05/21 06:30:33;;;;;;;8.67;5.07;;;19.60;99.90;;;;;;5058512;28;20189;-79
2023/05/21 06:32:59;;;;;;;11.27;5.10;;;19.60;99.90;;;;;;5060905;28;20207;-78
2023/05/21 06:35:26;;;;;;;12.23;5.70;;;19.50;99.90;;;;;;5111927;27;20191;-79
2023/05/21 06:37:52;;;;;;;8.00;4.97;;;19.60;99.90;;;;;;5114239;27;20778;-79
2023/05/21 06:40:19;;;;;;;9.80;5.37;;;19.60;99.90;;;;;;5060823;28;20181;-78
2023/05/21 06:42:45;;;;;;;9.83;4.97;;;19.70;99.90;;;;;;5076606;28;20645;-85
2023/05/21 06:45:12;;;;;;;10.27;5.50;;;19.80;99.90;;;;;;5058483;28;20224;-79
2023/05/21 06:47:38;;;;;;;9.47;5.00;;;20.00;99.90;;;;;;5075335;28;20651;-80
2023/05/21 06:50:05;;;;;;;10.23;4.77;;;20.10;99.90;;;;;;5060111;28;20197;-79
2023/05/21 06:52:31;;;;;;;11.57;5.30;;;20.10;99.90;;;;;;5080062;28;20334;-80
2023/05/21 06:54:58;;;;;;;11.00;4.97;;;20.10;99.90;;;;;;5058079;28;20213;-85
2023/05/21 06:57:25;;;;;;;10.23;5.07;;;20.10;99.90;;;;;;5064771;28;20197;-79
2023/05/21 06:59:51;;;;;;;11.13;5.77;;;20.00;99.90;;;;;;5062498;28;20178;-84
2023/05/21 07:02:17;;;;;;;12.63;5.40;;;20.00;99.90;;;;;;5078934;28;20192;-83
2023/05/21 07:04:43;;;;;;;17.03;5.07;;;20.00;99.90;;;;;;5067507;28;20193;-80
2023/05/21 07:07:10;;;;;;;7.33;4.53;;;20.10;99.90;;;;;;5078220;28;20193;-84
2023/05/21 07:09:36;;;;;;;13.93;5.67;;;20.10;99.90;;;;;;5082360;28;20178;-87
2023/05/21 07:12:02;;;;;;;13.10;5.73;;;20.30;99.90;;;;;;5081445;28;20216;-83
2023/05/21 07:14:29;;;;;;;10.90;4.60;;;20.40;99.90;;;;;;5080633;28;20178;-82
2023/05/21 07:16:59;;;;;;;10.37;5.10;;;20.40;99.90;;;;;;5061312;28;20178;-82
2023/05/21 07:19:25;;;;;;;14.47;5.93;;;20.40;99.90;;;;;;5059067;28;20660;-80
2023/05/21 07:21:52;;;;;;;10.10;5.47;;;20.50;99.90;;;;;;5079111;28;20197;-83
2023/05/21 07:24:18;;;;;;;10.70;5.00;;;20.50;99.90;;;;;;5090396;27;20198;-80
2023/05/21 07:26:45;;;;;;;11.13;4.83;;;20.50;99.90;;;;;;5081731;28;20192;-85
2023/05/21 07:29:11;;;;;;;9.77;5.30;;;20.50;99.90;;;;;;5061557;28;20715;-80
2023/05/21 07:31:38;;;;;;;6.73;4.30;;;20.60;99.90;;;;;;5075873;28;20206;-84
2023/05/21 07:34:05;;;;;;;9.20;4.40;;;20.60;99.90;;;;;;5099552;27;20809;-81
2023/05/21 07:36:32;;;;;;;8.83;4.90;;;20.60;99.90;;;;;;5082718;28;20273;-80
2023/05/21 07:38:59;;;;;;;12.27;4.87;;;20.60;99.90;;;;;;5091057;27;20213;-78
2023/05/21 07:41:26;;;;;;;9.87;4.63;;;20.60;99.90;;;;;;5078450;28;20302;-82
2023/05/21 07:43:52;;;;;;;12.07;4.40;;;20.70;99.90;;;;;;5072529;28;20182;-78
2023/05/21 07:46:18;;;;;;;8.40;4.50;;;20.80;99.90;;;;;;5072814;28;20615;-77
2023/05/21 07:48:45;;;;;;;12.67;4.63;;;20.90;99.90;;;;;;5085324;28;20360;-82
2023/05/21 07:51:12;;;;;;;11.10;4.90;;;20.80;99.90;;;;;;5098957;28;20185;-81
2023/05/21 07:53:40;;;;;;;8.40;5.00;;;20.80;99.90;;;;;;5064918;28;20222;-77
2023/05/21 07:56:07;;;;;;;7.10;5.00;;;20.80;99.90;;;;;;5078444;28;20238;-81
2023/05/21 07:58:35;;;;;;;9.23;4.57;;;20.90;99.90;;;;;;5082312;28;20170;-79
2023/05/21 08:01:01;;;;;;;8.40;4.77;;;21.00;99.90;;;;;;5096634;27;20186;-78
2023/05/21 08:03:29;;;;;;;11.33;5.10;;;21.10;99.90;;;;;;5098342;27;20179;-79
2023/05/21 08:05:56;;;;;;;8.43;4.70;;;21.10;99.90;;;;;;5083683;28;20187;-80
2023/05/21 08:08:22;;;;;;;9.93;4.60;;;21.30;99.90;;;;;;5081551;28;20328;-79
2023/05/21 08:10:49;;;;;;;7.63;4.80;;;21.30;99.90;;;;;;5066860;28;20202;-80
2023/05/21 08:13:16;;;;;;;8.07;4.20;;;21.30;99.90;;;;;;5076186;28;20210;-81
2023/05/21 08:15:45;;;;;;;9.03;4.30;;;21.40;99.90;;;;;;5054953;28;20182;-81
2023/05/21 08:18:12;;;;;;;8.07;4.80;;;21.50;99.90;;;;;;5088141;27;20255;-77
2023/05/21 08:20:38;;;;;;;9.23;4.30;;;21.60;99.90;;;;;;5056928;28;20287;-76
2023/05/21 08:23:05;;;;;;;7.57;4.20;;;21.60;99.90;;;;;;5079345;28;20245;-83
2023/05/21 08:25:31;;;;;;;10.80;4.47;;;21.70;99.90;;;;;;5096014;27;20648;-83
2023/05/21 08:27:57;;;;;;;6.55;4.38;;;21.80;99.90;;;;;;5084737;28;20724;-80
2023/05/21 08:30:24;;;;;;;9.30;4.83;;;21.90;99.90;;;;;;5073540;28;20186;-79
2023/05/21 08:32:51;;;;;;;10.60;4.40;;;21.90;99.90;;;;;;5057244;28;21068;-83
2023/05/21 08:35:17;;;;;;;12.17;4.30;;;22.00;99.90;;;;;;5092380;27;20209;-82
2023/05/21 08:37:43;;;;;;;8.60;4.20;;;22.00;99.90;;;;;;5073536;28;20284;-83
2023/05/21 08:40:11;;;;;;;8.70;4.13;;;22.10;99.90;;;;;;5072267;28;20170;-79
2023/05/21 08:42:50;;;;;;;6.65;4.00;;;22.00;99.90;;;;;;5101304;27;20193;-78
2023/05/21 08:45:22;;;;;;;8.20;4.17;;;22.00;99.90;;;;;;5069729;28;20186;-80
2023/05/21 08:47:56;;;;;;;9.03;4.10;;;21.90;99.90;;;;;;5054048;28;20190;-84
2023/05/21 08:50:27;;;;;;;8.82;4.40;;;21.80;99.90;;;;;;5082239;28;20216;-81
2023/05/21 08:52:54;;;;;;;7.00;4.20;;;21.70;99.90;;;;;;5056246;28;20206;-81
2023/05/21 08:55:22;;;;;;;8.93;4.30;;;21.70;99.90;;;;;;5072965;28;20187;-76
2023/05/21 08:57:49;;;;;;;8.03;4.47;;;21.90;99.90;;;;;;5086537;28;20183;-79
2023/05/21 09:00:16;;;;;;;8.75;4.32;;;22.10;99.90;;;;;;5078796;28;20182;-77
2023/05/21 09:02:45;;;;;;;9.40;4.67;;;22.20;99.90;;;;;;5079661;28;20273;-79
2023/05/21 09:05:15;;;;;;;8.87;4.07;;;22.10;99.90;;;;;;5055436;28;20660;-78
2023/05/21 09:08:00;;;;;;;8.13;4.50;;;22.10;99.90;;;;;;5107979;27;20190;-77
2023/05/21 09:10:37;;;;;;;11.43;4.75;;;22.30;99.90;;;;;;5062688;28;20188;-83
2023/05/21 09:13:04;;;;;;;7.25;4.15;;;22.50;99.90;;;;;;5080004;28;20824;-81
2023/05/21 09:15:34;;;;;;;9.63;4.22;;;22.60;99.90;;;;;;5105225;27;20705;-83
2023/05/21 09:18:00;;;;;;;5.97;4.45;;;22.70;99.90;;;;;;5056187;28;20211;-81
2023/05/21 09:20:27;;;;;;;7.25;3.97;;;22.70;99.90;;;;;;5082380;28;20180;-80
2023/05/21 09:22:54;;;;;;;6.78;4.40;;;22.80;99.90;;;;;;5078939;28;20217;-77
2023/05/21 09:25:28;;;;;;;9.43;4.72;;;22.60;99.90;;;;;;5060051;28;20235;-81
2023/05/21 09:28:01;;;;;;;9.40;4.70;;;22.20;99.90;;;;;;5075806;28;20190;-81
2023/05/21 09:30:27;;;;;;;10.90;4.18;;;22.00;99.90;;;;;;5073594;28;20190;-84
2023/05/21 09:32:59;;;;;;;8.02;4.35;;;21.80;99.90;;;;;;5044347;28;20724;-81
2023/05/21 09:35:26;;;;;;;5.13;3.87;;;21.70;99.90;;;;;;5096526;28;20867;-82
2023/05/21 09:37:53;;;;;;;9.23;4.87;;;21.60;99.90;;;;;;5074333;28;20713;-85
2023/05/21 09:40:22;;;;;;;11.47;5.37;;;21.50;99.90;;;;;;5080446;28;20182;-76
2023/05/21 09:42:53;;;;;;;11.53;4.90;;;21.40;99.90;;;;;;5095540;28;20196;-82
2023/05/21 09:45:25;;;;;;;6.97;4.53;;;21.30;99.90;;;;;;5108198;27;20204;-81
2023/05/21 09:47:53;;;;;;;6.43;4.73;;;21.20;99.90;;;;;;5078677;28;20251;-76
2023/05/21 09:50:26;;;;;;;8.90;5.10;;;21.20;99.90;;;;;;5062268;28;20178;-80
2023/05/21 09:52:54;;;;;;;8.13;5.03;;;21.20;99.90;;;;;;5096961;28;20237;-75
2023/05/21 09:55:28;;;;;;;14.63;5.00;;;21.20;99.90;;;;;;5078726;28;20186;-77
2023/05/21 09:57:56;;;;;;;8.60;4.97;;;21.40;99.90;;;;;;5094079;28;20303;-78
2023/05/21 10:00:26;;;;;;;;;;;21.60;99.90;;;;;;5067665;28;20562;-85
2023/05/21 10:02:59;;;;;;;;;;;21.90;99.90;;;;;;5069878;28;19919;-87
2023/05/21 10:05:28;;;;;;;;;;;22.00;99.90;;;;;;5084636;28;19912;-83
2023/05/21 10:08:03;;;;;;;;;;;22.20;99.90;;;;;;5111952;27;19919;-86
2023/05/21 10:10:31;;;;;;;;;;;22.30;99.90;;;;;;5084231;28;20357;-84
2023/05/21 10:13:07;;;;;;;;;;;22.50;99.90;;;;;;5063328;28;19959;-87
2023/05/21 10:15:46;;;;;;;;;;;22.60;99.90;;;;;;5066793;28;19916;-84
2023/05/21 10:18:13;;;;;;;;;;;22.60;99.90;;;;;;5081698;28;19926;-82
2023/05/21 10:20:43;;;;;;;;;;;22.70;99.90;;;;;;5070369;28;19917;-86
2023/05/21 10:23:23;;;;;;;;;;;22.80;99.90;;;;;;5066695;28;20033;-86
2023/05/21 10:25:51;;;;;;;;;;;22.80;99.90;;;;;;5065162;28;19920;-83
2023/05/21 10:28:19;;;;;;;;;;;22.80;99.90;;;;;;5064074;28;19923;-89
2023/05/21 10:30:45;;;;;;;;;;;22.80;99.90;;;;;;5082658;28;19912;-83
2023/05/21 10:33:17;;;;;;;;;;;22.60;99.90;;;;;;5082444;28;19924;-83
2023/05/21 10:35:46;;;;;;;;;;;22.50;99.90;;;;;;5080333;28;20389;-83
2023/05/21 10:38:14;;;;;;;;;;;22.50;99.90;;;;;;5079488;28;19927;-83
2023/05/21 10:40:44;;;;;;;;;;;22.50;99.90;;;;;;5061139;28;19912;-86
2023/05/21 10:43:28;;;;;;;;;;;22.50;99.90;;;;;;5076512;28;20592;-83
2023/05/21 10:46:13;;;;;;;;;;;22.40;99.90;;;;;;5091849;27;19912;-83
2023/05/21 10:49:01;;;;;;;;;;;22.30;99.90;;;;;;5079448;28;19967;-83
2023/05/21 10:51:37;;;;;;;;;;;22.30;99.90;;;;;;5108798;27;19915;-84
2023/05/21 10:54:18;;;;;;;;;;;22.30;99.90;;;;;;5080283;28;19973;-85
2023/05/21 10:56:56;;;;;;;;;;;22.30;99.90;;;;;;5068171;28;19912;-83
2023/05/21 10:59:56;;;;;;;;;;;22.30;99.90;;;;;;5120951;27;19919;-83
2023/05/21 11:02:25;;;;;;;;;;;22.20;99.90;;;;;;5029187;28;19926;-83
2023/05/21 11:04:59;;;;;;;;;;;22.10;99.90;;;;;;5068729;28;20261;-85
2023/05/21 11:08:01;;;;;;;;;;;22.00;99.90;;;;;;5085983;28;19928;-86
2023/05/21 11:10:34;;;;;;;;;;;22.00;99.90;;;;;;5002782;28;19913;-84
2023/05/21 11:13:09;;;;;;;;;;;22.10;99.90;;;;;;5066062;28;19934;-84
2023/05/21 11:15:57;;;;;;;;;;;22.20;99.90;;;;;;5078044;28;19912;-84
2023/05/21 11:18:29;;;;;;;;;;;22.10;99.90;;;;;;5061908;28;20579;-85
2023/05/21 11:21:15;;;;;;;;;;;22.10;99.90;;;;;;5061713;28;19951;-86
2023/05/21 11:23:57;;;;;;;;;;;22.20;99.90;;;;;;5077407;28;19927;-85
2023/05/21 11:26:46;;;;;;;;;;;22.20;99.90;;;;;;5092352;28;19996;-83
2023/05/21 11:29:13;;;;;;;;;;;22.20;99.90;;;;;;5078247;28;19964;-86
2023/05/21 11:31:45;;;;;;;;;;;22.20;99.90;;;;;;5087307;27;21497;-85
2023/05/21 11:34:28;;;;;;;;;;;22.10;99.90;;;;;;5060262;28;20445;-85
2023/05/21 11:37:16;;;;;;;;;;;22.10;99.90;;;;;;5082760;28;20000;-84
2023/05/21 11:39:44;;;;;;;;;;;22.10;99.90;;;;;;5077785;28;20391;-87
2023/05/21 11:42:10;;;;;;;;;;;22.00;99.90;;;;;;5099426;27;19969;-81
2023/05/21 11:44:48;;;;;;;;;;;22.00;99.90;;;;;;5096957;27;19969;-89
2023/05/21 11:47:17;;;;;;;;;;;21.90;99.90;;;;;;5073914;28;19916;-85
2023/05/21 11:49:44;;;;;;;;;;;21.80;99.90;;;;;;5079918;28;19923;-83
2023/05/21 11:52:11;;;;;;;;;;;21.80;99.90;;;;;;5076763;28;19916;-84
2023/05/21 11:54:57;;;;;;;;;;;21.80;99.90;;;;;;5078891;28;20035;-83
2023/05/21 11:57:27;;;;;;;;;;;21.70;99.90;;;;;;5080146;28;19923;-85
2023/05/21 11:59:55;;;;;;;;;;;21.60;99.90;;;;;;5092575;28;19915;-83
2023/05/21 12:02:21;;;;;;;;;;;21.60;99.90;;;;;;5061661;28;19927;-83
2023/05/21 12:04:49;;;;;;;;;;;21.50;99.90;;;;;;5115204;27;19947;-84
2023/05/21 12:07:17;;;;;;;;;;;21.50;99.90;;;;;;5057794;28;21024;-84
2023/05/21 12:09:44;;;;;;;;;;;21.50;99.90;;;;;;5078894;28;20275;-87
2023/05/21 12:12:13;;;;;;;;;;;21.40;99.90;;;;;;5072945;28;20026;-87
2023/05/21 12:14:39;;;;;;;;;;;21.40;99.90;;;;;;5075788;28;19912;-85
2023/05/21 12:17:08;;;;;;;;;;;21.40;99.90;;;;;;5103088;27;19924;-85
2023/05/21 12:19:38;;;;;;;;;;;21.40;99.90;;;;;;5081974;28;19916;-84
2023/05/21 12:22:08;;;;;;;;;;;21.40;99.90;;;;;;5090055;28;19927;-85
2023/05/21 12:24:36;;;;;;;;;;;21.30;99.90;;;;;;5081953;28;20693;-85
2023/05/21 12:27:08;;;;;;;;;;;21.30;99.90;;;;;;5107108;27;19920;-85
2023/05/21 12:29:45;;;;;;;;;;;21.30;99.90;;;;;;5079116;28;20247;-83
2023/05/21 12:32:15;;;;;;;;;;;21.30;99.90;;;;;;5077087;28;20006;-85
2023/05/21 12:34:50;;;;;;;;;;;21.20;99.90;;;;;;5092557;27;20062;-83
2023/05/21 12:37:20;;;;;;;;;;;21.30;99.90;;;;;;5058359;28;19951;-84
2023/05/21 12:39:49;;;;;;;;;;;21.30;99.90;;;;;;5092608;27;19912;-85
2023/05/21 12:42:15;;;;;;;;;;;21.30;99.90;;;;;;5059738;28;19954;-84
2023/05/21 12:44:46;;;;;;;;;;;21.20;99.90;;;;;;5057332;28;19965;-83
2023/05/21 12:47:13;;;;;;;;;;;21.20;99.90;;;;;;5074239;28;20014;-83
2023/05/21 12:49:41;;;;;;;;;;;21.10;99.90;;;;;;5060187;28;19924;-84
2023/05/21 12:52:11;;;;;;;;;;;21.00;99.90;;;;;;5076738;28;19922;-83
2023/05/21 12:54:39;;;;;;;;;;;20.90;99.90;;;;;;5061080;28;19926;-84
2023/05/21 12:57:20;;;;;;;;;;;20.90;99.90;;;;;;5076026;28;19919;-85
2023/05/21 12:59:48;;;;;;;;;;;20.80;99.90;;;;;;5078369;28;19927;-84
2023/05/21 13:02:37;;;;;;;;;;;20.80;99.90;;;;;;5102222;27;19930;-85
2023/05/21 13:05:06;;;;;;;;;;;20.70;99.90;;;;;;5082853;28;19939;-88
2023/05/21 13:07:35;;;;;;;;;;;20.70;99.90;;;;;;5059799;28;19999;-85
2023/05/21 13:10:02;;;;;;;;;;;20.60;99.90;;;;;;5081434;28;19912;-84
2023/05/21 13:12:29;;;;;;;;;;;20.60;99.90;;;;;;5061660;28;19924;-84
2023/05/21 13:14:58;;;;;;;;;;;20.50;99.90;;;;;;5075882;28;19922;-85